createdAt,value
2023-05-18T00:00:55.472Z,15.21
2023-05-18T00:03:22.260Z,15.18
2023-05-18T00:05:49.283Z,15.16
2023-05-18T00:08:16.197Z,15.13
2023-05-18T00:10:42.914Z,15.09
2023-05-18T00:13:09.349Z,15.06
2023-05-18T00:15:35.830Z,15.01
2023-05-18T00:18:02.951Z,14.97
2023-05-18T00:20:30.058Z,14.92
2023-05-18T00:22:56.691Z,14.90
2023-05-18T00:25:23.210Z,14.88
2023-05-18T00:27:52.131Z,14.86
2023-05-18T00:30:18.976Z,14.85
2023-05-18T00:32:45.968Z,14.83
2023-05-18T00:35:12.763Z,14.81
2023-05-18T00:37:39.215Z,14.77
2023-05-18T00:40:06.697Z,14.74
2023-05-18T00:42:33.176Z,14.73
2023-05-18T00:44:59.527Z,14.72
2023-05-18T00:47:26.100Z,14.70
2023-05-18T00:49:52.558Z,14.68
2023-05-18T00:52:19.663Z,14.65
2023-05-18T00:54:46.320Z,14.63
2023-05-18T00:57:12.770Z,14.60
2023-05-18T00:59:40.076Z,14.59
2023-05-18T01:02:06.889Z,14.56
2023-05-18T01:04:34.048Z,14.54
2023-05-18T01:07:06.850Z,14.51
2023-05-18T01:09:34.598Z,14.50
2023-05-18T01:12:21.358Z,14.45
2023-05-18T01:15:28.857Z,14.43
2023-05-18T01:18:05.053Z,14.43
2023-05-18T01:20:39.763Z,14.42
2023-05-18T01:23:45.032Z,14.37
2023-05-18T01:26:15.381Z,14.36
2023-05-18T01:28:46.291Z,14.35
2023-05-18T01:31:15.142Z,14.34
2023-05-18T01:33:42.153Z,14.32
2023-05-18T01:36:09.186Z,14.31
2023-05-18T01:38:36.473Z,14.28
2023-05-18T01:41:11.983Z,14.26
2023-05-18T01:43:46.803Z,14.26
2023-05-18T01:46:28.302Z,14.28
2023-05-18T01:49:00.149Z,14.27
2023-05-18T01:51:32.973Z,14.26
2023-05-18T01:54:04.761Z,14.27
2023-05-18T01:56:33.440Z,14.26
2023-05-18T01:59:00.583Z,14.29
2023-05-18T02:01:27.185Z,14.30
2023-05-18T02:03:54.057Z,14.31
2023-05-18T02:06:20.925Z,14.32
2023-05-18T02:08:47.745Z,14.33
2023-05-18T02:11:14.462Z,14.34
2023-05-18T02:13:41.297Z,14.33
2023-05-18T02:16:08.284Z,14.35
2023-05-18T02:18:36.499Z,14.34
2023-05-18T02:21:04.047Z,14.34
2023-05-18T02:23:31.228Z,14.33
2023-05-18T02:25:58.147Z,14.30
2023-05-18T02:28:24.845Z,14.29
2023-05-18T02:30:51.500Z,14.26
2023-05-18T02:33:19.641Z,14.24
2023-05-18T02:35:46.668Z,14.21
2023-05-18T02:38:13.173Z,14.20
2023-05-18T02:40:39.802Z,14.19
2023-05-18T02:43:06.161Z,14.17
2023-05-18T02:45:32.876Z,14.15
2023-05-18T02:47:59.509Z,14.13
2023-05-18T02:50:26.017Z,14.14
2023-05-18T02:52:52.527Z,14.12
2023-05-18T02:55:19.187Z,14.08
2023-05-18T02:57:47.068Z,14.05
2023-05-18T03:00:16.649Z,14.02
2023-05-18T03:02:44.299Z,13.97
2023-05-18T03:05:11.065Z,13.91
2023-05-18T03:07:37.762Z,13.84
2023-05-18T03:10:04.627Z,13.79
2023-05-18T03:12:31.129Z,13.76
2023-05-18T03:14:57.678Z,13.72
2023-05-18T03:17:24.406Z,13.70
2023-05-18T03:19:51.587Z,13.67
2023-05-18T03:22:17.965Z,13.65
2023-05-18T03:24:44.728Z,13.65
2023-05-18T03:27:13.110Z,13.65
2023-05-18T03:29:39.801Z,13.64
2023-05-18T03:32:06.689Z,13.64
2023-05-18T03:34:33.148Z,13.65
2023-05-18T03:37:00.099Z,13.64
2023-05-18T03:39:26.543Z,13.63
2023-05-18T03:41:53.019Z,13.61
2023-05-18T03:44:19.456Z,13.60
2023-05-18T03:46:46.185Z,13.60
2023-05-18T03:49:12.972Z,13.59
2023-05-18T03:51:40.740Z,13.60
2023-05-18T03:54:07.315Z,13.58
2023-05-18T03:56:33.935Z,13.59
2023-05-18T03:59:00.598Z,13.58
2023-05-18T04:01:30.570Z,13.59
2023-05-18T04:03:57.924Z,13.57
2023-05-18T04:06:26.043Z,13.56
2023-05-18T04:08:53.677Z,13.58
2023-05-18T04:11:21.465Z,13.55
2023-05-18T04:13:48.083Z,13.56
2023-05-18T04:16:14.759Z,13.54
2023-05-18T04:18:41.648Z,13.52
2023-05-18T04:21:08.977Z,13.50
2023-05-18T04:23:39.614Z,13.49
2023-05-18T04:26:06.806Z,13.48
2023-05-18T04:28:33.538Z,13.47
2023-05-18T04:31:01.768Z,13.46
2023-05-18T04:33:29.463Z,13.45
2023-05-18T04:35:55.886Z,13.47
2023-05-18T04:38:25.250Z,13.47
2023-05-18T04:40:52.035Z,13.48
2023-05-18T04:43:18.602Z,13.48
2023-05-18T04:45:50.668Z,13.49
2023-05-18T04:48:20.125Z,13.50
2023-05-18T04:50:46.997Z,13.51
2023-05-18T04:53:13.793Z,13.51
2023-05-18T04:55:40.260Z,13.50
2023-05-18T04:58:06.617Z,13.51
2023-05-18T05:00:33.121Z,13.51
2023-05-18T05:02:59.901Z,13.53
2023-05-18T05:05:27.082Z,13.55
2023-05-18T05:07:54.426Z,13.55
2023-05-18T05:10:22.517Z,13.55
2023-05-18T05:12:51.978Z,13.56
2023-05-18T05:15:19.375Z,13.56
2023-05-18T05:17:50.131Z,13.55
2023-05-18T05:20:17.915Z,13.57
2023-05-18T05:22:44.668Z,13.59
2023-05-18T05:25:11.634Z,13.58
2023-05-18T05:27:38.204Z,13.59
2023-05-18T05:30:05.966Z,13.60
2023-05-18T05:32:33.828Z,13.61
2023-05-18T05:35:00.347Z,13.64
2023-05-18T05:37:26.785Z,13.65
2023-05-18T05:39:53.417Z,13.67
2023-05-18T05:42:19.816Z,13.67
2023-05-18T05:44:46.324Z,13.67
2023-05-18T05:47:12.888Z,13.67
2023-05-18T05:49:39.582Z,13.69
2023-05-18T05:52:06.405Z,13.71
2023-05-18T05:54:33.059Z,13.73
2023-05-18T05:56:59.735Z,13.77
2023-05-18T05:59:26.546Z,13.80
2023-05-18T06:01:53.302Z,13.84
2023-05-18T06:04:20.417Z,13.89
2023-05-18T06:06:49.688Z,13.93
2023-05-18T06:09:16.357Z,13.99
2023-05-18T06:11:43.344Z,14.06
2023-05-18T06:14:09.765Z,14.12
2023-05-18T06:16:36.480Z,14.17
2023-05-18T06:19:03.318Z,14.21
2023-05-18T06:21:29.874Z,14.26
2023-05-18T06:23:57.029Z,14.29
2023-05-18T06:26:23.530Z,14.32
2023-05-18T06:28:50.067Z,14.38
2023-05-18T06:31:19.115Z,14.42
2023-05-18T06:33:45.908Z,14.47
2023-05-18T06:36:12.326Z,14.50
2023-05-18T06:38:38.744Z,14.53
2023-05-18T06:41:05.275Z,14.54
2023-05-18T06:43:32.936Z,14.59
2023-05-18T06:45:59.724Z,14.64
2023-05-18T06:48:28.475Z,14.68
2023-05-18T06:50:55.895Z,14.72
2023-05-18T06:53:23.392Z,14.79
2023-05-18T06:55:50.338Z,14.83
2023-05-18T06:58:18.367Z,14.88
2023-05-18T07:00:45.611Z,14.94
2023-05-18T07:03:12.265Z,14.99
2023-05-18T07:05:39.731Z,15.03
2023-05-18T07:08:07.565Z,15.09
2023-05-18T07:10:36.073Z,15.13
2023-05-18T07:13:02.754Z,15.19
2023-05-18T07:15:29.681Z,15.24
2023-05-18T07:17:56.988Z,15.29
2023-05-18T07:20:26.443Z,15.34
2023-05-18T07:22:55.130Z,15.40
2023-05-18T07:25:22.547Z,15.47
2023-05-18T07:27:52.279Z,15.55
2023-05-18T07:30:18.822Z,15.64
2023-05-18T07:32:45.872Z,15.71
2023-05-18T07:35:13.671Z,15.81
2023-05-18T07:37:40.364Z,15.91
2023-05-18T07:40:10.156Z,16.03
2023-05-18T07:42:37.746Z,16.15
2023-05-18T07:45:04.508Z,16.30
2023-05-18T07:47:30.959Z,16.46
2023-05-18T07:50:00.144Z,16.59
2023-05-18T07:52:26.732Z,16.76
2023-05-18T07:54:55.173Z,16.90
2023-05-18T07:57:21.906Z,17.05
2023-05-18T07:59:48.423Z,17.18
2023-05-18T08:02:17.009Z,17.30
2023-05-18T08:04:43.614Z,17.44
2023-05-18T08:07:10.859Z,17.59
2023-05-18T08:09:37.328Z,17.71
2023-05-18T08:12:05.926Z,17.82
2023-05-18T08:14:32.284Z,17.95
2023-05-18T08:16:58.816Z,18.11
2023-05-18T08:19:27.514Z,18.24
2023-05-18T08:21:55.549Z,18.39
2023-05-18T08:24:21.967Z,18.54
2023-05-18T08:26:50.111Z,18.66
2023-05-18T08:29:16.525Z,18.81
2023-05-18T08:31:43.267Z,18.92
2023-05-18T08:34:09.897Z,19.02
2023-05-18T08:36:37.158Z,19.13
2023-05-18T08:39:05.516Z,19.24
2023-05-18T08:41:40.329Z,19.31
2023-05-18T08:44:16.957Z,19.41
2023-05-18T08:46:48.469Z,19.50
2023-05-18T08:49:18.679Z,19.60
2023-05-18T08:51:51.391Z,19.63
2023-05-18T08:54:21.442Z,19.63
2023-05-18T08:56:56.433Z,19.65
2023-05-18T08:59:33.768Z,19.63
2023-05-18T09:02:00.412Z,19.66
2023-05-18T09:04:28.704Z,19.64
2023-05-18T09:06:56.516Z,19.63
2023-05-18T09:09:25.517Z,19.60
2023-05-18T09:11:52.245Z,19.56
2023-05-18T09:14:19.019Z,19.51
2023-05-18T09:16:45.592Z,19.44
2023-05-18T09:19:13.457Z,19.38
2023-05-18T09:21:40.211Z,19.31
2023-05-18T09:24:06.996Z,19.27
2023-05-18T09:26:33.436Z,19.25
2023-05-18T09:29:02.370Z,19.22
2023-05-18T09:31:30.975Z,19.20
2023-05-18T09:34:04.005Z,19.19
2023-05-18T09:36:32.548Z,19.19
2023-05-18T09:38:59.029Z,19.18
2023-05-18T09:41:28.308Z,19.17
2023-05-18T09:43:54.991Z,19.18
2023-05-18T09:46:22.131Z,19.17
2023-05-18T09:48:54.141Z,19.18
2023-05-18T09:51:25.805Z,19.24
2023-05-18T09:53:59.194Z,19.27
2023-05-18T09:56:27.213Z,19.33
2023-05-18T09:58:54.223Z,19.37
2023-05-18T10:01:20.787Z,19.42
2023-05-18T10:03:48.498Z,19.45
2023-05-18T10:06:20.240Z,19.49
2023-05-18T10:08:46.913Z,19.52
2023-05-18T10:11:17.865Z,19.50
2023-05-18T10:13:48.059Z,19.50
2023-05-18T10:16:16.880Z,19.48
2023-05-18T10:18:45.707Z,19.46
2023-05-18T10:21:14.403Z,19.47
2023-05-18T10:23:42.568Z,19.49
2023-05-18T10:26:10.282Z,19.52
2023-05-18T10:28:48.486Z,19.54
2023-05-18T10:31:30.241Z,19.59
2023-05-18T10:34:00.191Z,19.66
2023-05-18T10:36:30.272Z,19.68
2023-05-18T10:38:59.897Z,19.71
2023-05-18T10:41:27.688Z,19.73
2023-05-18T10:43:55.061Z,19.75
2023-05-18T10:46:27.131Z,19.75
2023-05-18T10:48:54.363Z,19.77
2023-05-18T10:51:21.427Z,19.80
2023-05-18T10:53:48.553Z,19.86
2023-05-18T10:56:18.241Z,19.90
2023-05-18T10:58:45.780Z,19.95
2023-05-18T11:01:13.712Z,19.97
2023-05-18T11:06:10.696Z,20.06
2023-05-18T11:08:46.369Z,20.11
2023-05-18T11:11:13.070Z,20.09
2023-05-18T11:13:51.373Z,20.02
2023-05-18T11:16:19.386Z,19.99
2023-05-18T11:18:52.792Z,19.95
2023-05-18T11:21:50.365Z,19.89
2023-05-18T11:24:31.124Z,19.91
2023-05-18T11:27:07.622Z,19.94
2023-05-18T11:29:36.162Z,19.99
2023-05-18T11:32:04.840Z,20.03
2023-05-18T11:34:45.449Z,20.06
2023-05-18T11:37:38.295Z,20.05
2023-05-18T11:40:15.296Z,20.07
2023-05-18T11:42:41.937Z,20.12
2023-05-18T11:45:09.557Z,20.13
2023-05-18T11:47:37.017Z,20.15
2023-05-18T11:50:07.021Z,20.17
2023-05-18T11:52:33.694Z,20.22
2023-05-18T11:55:01.375Z,20.24
2023-05-18T11:57:33.729Z,20.26
2023-05-18T12:00:02.904Z,20.35
2023-05-18T12:02:33.031Z,20.40
2023-05-18T12:05:01.293Z,20.47
2023-05-18T12:07:30.230Z,20.56
2023-05-18T12:10:03.255Z,20.60
2023-05-18T12:12:30.543Z,20.71
2023-05-18T12:14:59.271Z,20.73
2023-05-18T12:17:40.564Z,20.76
2023-05-18T12:20:08.721Z,20.82
2023-05-18T12:22:35.773Z,20.85
2023-05-18T12:25:02.432Z,20.89
2023-05-18T12:27:29.462Z,20.92
2023-05-18T12:29:55.938Z,20.95
2023-05-18T12:32:23.834Z,20.98
2023-05-18T12:34:51.437Z,21.00
2023-05-18T12:37:19.193Z,21.01
2023-05-18T12:39:52.341Z,20.96
2023-05-18T12:42:18.870Z,21.02
2023-05-18T12:44:46.026Z,21.02
2023-05-18T12:47:13.209Z,21.04
2023-05-18T12:49:41.722Z,21.07
2023-05-18T12:52:13.048Z,21.11
2023-05-18T12:55:03.094Z,21.13
2023-05-18T12:57:31.339Z,21.21
2023-05-18T12:59:58.161Z,21.24
2023-05-18T13:02:34.107Z,21.25
2023-05-18T13:05:06.451Z,21.27
2023-05-18T13:07:35.927Z,21.29
2023-05-18T13:10:10.463Z,21.34
2023-05-18T13:12:42.923Z,21.35
2023-05-18T13:15:18.250Z,21.37
2023-05-18T13:18:01.596Z,21.37
2023-05-18T13:20:36.591Z,21.41
2023-05-18T13:23:10.400Z,21.43
2023-05-18T13:25:37.367Z,21.47
2023-05-18T13:28:05.546Z,21.49
2023-05-18T13:30:32.910Z,21.50
2023-05-18T13:33:00.758Z,21.52
2023-05-18T13:35:27.293Z,21.56
2023-05-18T13:37:54.049Z,21.57
2023-05-18T13:40:22.152Z,21.59
2023-05-18T13:42:48.939Z,21.61
2023-05-18T13:45:16.378Z,21.62
2023-05-18T13:47:47.743Z,21.63
2023-05-18T13:50:14.332Z,21.66
2023-05-18T13:52:41.011Z,21.70
2023-05-18T13:55:09.956Z,21.73
2023-05-18T13:57:37.365Z,21.75
2023-05-18T14:00:13.542Z,21.78
2023-05-18T14:02:41.869Z,21.80
2023-05-18T14:05:09.490Z,21.86
2023-05-18T14:07:41.181Z,21.90
2023-05-18T14:10:09.762Z,21.91
2023-05-18T14:12:36.276Z,21.93
2023-05-18T14:15:03.795Z,21.99
2023-05-18T14:17:33.285Z,21.99
2023-05-18T14:20:00.277Z,22.00
2023-05-18T14:22:27.409Z,22.01
2023-05-18T14:24:56.536Z,22.03
2023-05-18T14:27:23.081Z,22.04
2023-05-18T14:29:50.599Z,22.07
2023-05-18T14:32:17.487Z,22.08
2023-05-18T14:34:43.912Z,22.10
2023-05-18T14:37:10.340Z,22.13
2023-05-18T14:39:37.739Z,22.15
2023-05-18T14:42:04.688Z,22.18
2023-05-18T14:44:31.166Z,22.19
2023-05-18T14:46:57.708Z,22.22
2023-05-18T14:49:24.252Z,22.25
2023-05-18T14:51:50.675Z,22.28
2023-05-18T14:54:18.989Z,22.31
2023-05-18T14:56:45.620Z,22.34
2023-05-18T14:59:12.089Z,22.36
2023-05-18T15:01:39.607Z,22.37
2023-05-18T15:04:06.302Z,22.38
2023-05-18T15:06:33.677Z,22.41
2023-05-18T15:09:02.051Z,22.38
2023-05-18T15:11:28.469Z,22.41
2023-05-18T15:13:54.894Z,22.40
2023-05-18T15:16:21.558Z,22.41
2023-05-18T15:18:48.035Z,22.44
2023-05-18T15:21:14.660Z,22.45
2023-05-18T15:23:41.120Z,22.46
2023-05-18T15:26:09.237Z,22.46
2023-05-18T15:28:36.415Z,22.47
2023-05-18T15:31:02.919Z,22.49
2023-05-18T15:33:29.364Z,22.48
2023-05-18T15:35:57.112Z,22.48
2023-05-18T15:38:23.584Z,22.48
2023-05-18T15:40:50.763Z,22.46
2023-05-18T15:43:17.594Z,22.45
2023-05-18T15:45:44.638Z,22.46
2023-05-18T15:48:11.543Z,22.47
2023-05-18T15:50:38.012Z,22.47
2023-05-18T15:53:04.721Z,22.47
2023-05-18T15:55:33.295Z,22.47
2023-05-18T15:57:59.625Z,22.50
2023-05-18T16:00:26.605Z,22.53
2023-05-18T16:02:53.393Z,22.52
2023-05-18T16:05:19.982Z,22.52
2023-05-18T16:07:46.795Z,22.51
2023-05-18T16:10:14.390Z,22.51
2023-05-18T16:12:41.166Z,22.51
2023-05-18T16:15:08.028Z,22.49
2023-05-18T16:17:34.743Z,22.49
2023-05-18T16:20:03.970Z,22.47
2023-05-18T16:22:33.475Z,22.47
2023-05-18T16:24:59.862Z,22.46
2023-05-18T16:27:26.631Z,22.45
2023-05-18T16:29:53.095Z,22.45
2023-05-18T16:32:20.261Z,22.45
2023-05-18T16:34:46.644Z,22.44
2023-05-18T16:37:13.130Z,22.43
2023-05-18T16:39:39.806Z,22.44
2023-05-18T16:42:08.087Z,22.43
2023-05-18T16:44:36.318Z,22.42
2023-05-18T16:47:03.004Z,22.42
2023-05-18T16:49:29.491Z,22.43
2023-05-18T16:51:57.023Z,22.41
2023-05-18T16:54:23.461Z,22.40
2023-05-18T16:56:49.917Z,22.38
2023-05-18T16:59:17.015Z,22.38
2023-05-18T17:01:43.538Z,22.37
2023-05-18T17:04:10.394Z,22.32
2023-05-18T17:06:37.828Z,22.30
2023-05-18T17:09:06.468Z,22.28
2023-05-18T17:11:33.477Z,22.28
2023-05-18T17:14:01.422Z,22.27
2023-05-18T17:16:28.421Z,22.29
2023-05-18T17:18:57.855Z,22.28
2023-05-18T17:21:25.108Z,22.28
2023-05-18T17:23:51.477Z,22.27
2023-05-18T17:26:17.965Z,22.23
2023-05-18T17:28:44.406Z,22.20
2023-05-18T17:31:11.683Z,22.17
2023-05-18T17:33:38.863Z,22.11
2023-05-18T17:36:05.584Z,22.08
2023-05-18T17:38:33.176Z,22.04
2023-05-18T17:40:59.591Z,22.01
2023-05-18T17:43:26.008Z,21.98
2023-05-18T17:45:52.563Z,21.95
2023-05-18T17:48:20.239Z,21.92
2023-05-18T17:50:47.716Z,21.90
2023-05-18T17:53:14.453Z,21.87
2023-05-18T17:55:42.236Z,21.84
2023-05-18T17:58:10.079Z,21.80
2023-05-18T18:00:41.780Z,21.77
2023-05-18T18:03:08.537Z,21.73
2023-05-18T18:05:36.704Z,21.69
2023-05-18T18:08:03.368Z,21.65
2023-05-18T18:10:32.829Z,21.59
2023-05-18T18:12:59.526Z,21.55
2023-05-18T18:15:27.704Z,21.51
2023-05-18T18:17:55.169Z,21.46
2023-05-18T18:20:22.054Z,21.43
2023-05-18T18:22:48.739Z,21.40
2023-05-18T18:25:15.260Z,21.37
2023-05-18T18:27:41.943Z,21.34
2023-05-18T18:30:09.081Z,21.29
2023-05-18T18:32:35.805Z,21.26
2023-05-18T18:35:03.623Z,21.21
2023-05-18T18:37:30.128Z,21.19
2023-05-18T18:39:56.553Z,21.14
2023-05-18T18:42:23.291Z,21.10
2023-05-18T18:44:52.788Z,21.04
2023-05-18T18:47:19.343Z,21.01
2023-05-18T18:49:45.808Z,20.94
2023-05-18T18:52:13.863Z,20.91
2023-05-18T18:54:41.340Z,20.88
2023-05-18T18:57:08.366Z,20.84
2023-05-18T18:59:35.445Z,20.79
2023-05-18T19:02:02.245Z,20.74
2023-05-18T19:04:28.820Z,20.70
2023-05-18T19:06:56.191Z,20.65
2023-05-18T19:09:22.844Z,20.60
2023-05-18T19:11:50.274Z,20.56
2023-05-18T19:14:17.469Z,20.52
2023-05-18T19:16:43.939Z,20.48
2023-05-18T19:19:11.767Z,20.44
2023-05-18T19:21:38.560Z,20.40
2023-05-18T19:24:07.450Z,20.36
2023-05-18T19:26:34.554Z,20.29
2023-05-18T19:29:01.129Z,20.27
2023-05-18T19:31:28.574Z,20.21
2023-05-18T19:33:55.269Z,20.18
2023-05-18T19:36:21.933Z,20.12
2023-05-18T19:38:51.268Z,20.08
2023-05-18T19:41:17.690Z,20.03
2023-05-18T19:43:44.418Z,20.00
2023-05-18T19:46:11.443Z,19.95
2023-05-18T19:48:37.886Z,19.92
2023-05-18T19:51:04.374Z,19.90
2023-05-18T19:53:30.800Z,19.85
2023-05-18T19:55:57.224Z,19.83
2023-05-18T19:58:23.831Z,19.81
2023-05-18T20:00:52.641Z,19.77
2023-05-18T20:03:20.743Z,19.75
2023-05-18T20:05:48.026Z,19.74
2023-05-18T20:08:14.830Z,19.70
2023-05-18T20:10:41.235Z,19.67
2023-05-18T20:13:07.872Z,19.65
2023-05-18T20:15:36.707Z,19.61
2023-05-18T20:18:06.647Z,19.59
2023-05-18T20:20:36.336Z,19.57
2023-05-18T20:23:03.579Z,19.54
2023-05-18T20:25:34.870Z,19.51
2023-05-18T20:28:03.154Z,19.50
2023-05-18T20:30:30.080Z,19.50
2023-05-18T20:32:58.907Z,19.46
2023-05-18T20:35:26.177Z,19.47
2023-05-18T20:37:59.475Z,19.48
2023-05-18T20:40:28.007Z,19.43
2023-05-18T20:42:54.468Z,19.42
2023-05-18T20:45:22.757Z,19.43
2023-05-18T20:47:53.586Z,19.38
2023-05-18T20:50:23.136Z,19.33
2023-05-18T20:52:50.707Z,19.29
2023-05-18T20:55:18.402Z,19.26
2023-05-18T20:57:46.369Z,19.22
2023-05-18T21:00:13.518Z,19.19
2023-05-18T21:02:44.989Z,19.15
2023-05-18T21:05:16.170Z,19.12
2023-05-18T21:07:43.944Z,19.10
2023-05-18T21:10:11.921Z,19.06
2023-05-18T21:12:38.588Z,19.01
2023-05-18T21:15:05.488Z,18.98
2023-05-18T21:17:32.172Z,18.95
2023-05-18T21:19:59.989Z,18.91
2023-05-18T21:22:26.407Z,18.90
2023-05-18T21:24:52.876Z,18.89
2023-05-18T21:27:19.284Z,18.89
2023-05-18T21:29:45.937Z,18.87
2023-05-18T21:32:12.796Z,18.88
2023-05-18T21:34:41.147Z,18.87
2023-05-18T21:37:09.399Z,18.88
2023-05-18T21:39:35.976Z,18.86
2023-05-18T21:42:03.422Z,18.85
2023-05-18T21:44:30.060Z,18.84
2023-05-18T21:46:57.892Z,18.82
2023-05-18T21:49:25.021Z,18.82
2023-05-18T21:51:51.913Z,18.81
2023-05-18T21:54:18.265Z,18.81
2023-05-18T21:56:44.854Z,18.80
2023-05-18T21:59:11.304Z,18.80
2023-05-18T22:01:37.916Z,18.78
2023-05-18T22:04:04.736Z,18.75
2023-05-18T22:06:31.205Z,18.72
2023-05-18T22:08:57.650Z,18.70
2023-05-18T22:11:24.461Z,18.69
2023-05-18T22:13:51.058Z,18.68
2023-05-18T22:16:17.496Z,18.67
2023-05-18T22:18:44.128Z,18.66
2023-05-18T22:21:10.719Z,18.66
2023-05-18T22:23:38.752Z,18.64
2023-05-18T22:26:05.360Z,18.63
2023-05-18T22:28:31.779Z,18.60
2023-05-18T22:30:58.141Z,18.55
2023-05-18T22:33:24.971Z,18.50
2023-05-18T22:35:51.369Z,18.45
2023-05-18T22:38:17.942Z,18.41
2023-05-18T22:40:45.414Z,18.36
2023-05-18T22:43:12.005Z,18.32
2023-05-18T22:45:38.394Z,18.29
2023-05-18T22:48:05.116Z,18.27
2023-05-18T22:50:31.981Z,18.22
2023-05-18T22:52:58.708Z,18.20
2023-05-18T22:55:25.144Z,18.19
2023-05-18T22:57:51.779Z,18.16
2023-05-18T23:00:18.377Z,18.14
2023-05-18T23:02:44.843Z,18.13
2023-05-18T23:05:11.868Z,18.10
2023-05-18T23:07:41.691Z,18.06
2023-05-18T23:10:13.586Z,18.02
2023-05-18T23:12:40.314Z,17.99
2023-05-18T23:15:07.284Z,17.92
2023-05-18T23:17:33.978Z,17.86
2023-05-18T23:20:08.254Z,17.80
2023-05-18T23:22:34.935Z,17.75
2023-05-18T23:25:02.251Z,17.70
2023-05-18T23:27:28.994Z,17.65
2023-05-18T23:29:56.359Z,17.60
2023-05-18T23:32:23.491Z,17.56
2023-05-18T23:34:52.841Z,17.49
2023-05-18T23:37:20.923Z,17.44
2023-05-18T23:39:51.649Z,17.39
2023-05-18T23:42:21.425Z,17.35
2023-05-18T23:44:48.644Z,17.31
2023-05-18T23:47:16.506Z,17.28
2023-05-18T23:49:44.169Z,17.25
2023-05-18T23:52:11.686Z,17.21
2023-05-18T23:54:38.580Z,17.18
2023-05-18T23:57:05.703Z,17.14
2023-05-18T23:59:32.647Z,17.11
